sensor_id;sensor_type;location;lat;lon;timestamp;P1;durP1;ratioP1;P2;durP2;ratioP2
6280;SDS011;3173;48.204;11.612;2023-08-30T00:00:43;15.87;;;12.73;;
6280;SDS011;3173;48.204;11.612;2023-08-30T00:03:10;14.80;;;12.80;;
6280;SDS011;3173;48.204;11.612;2023-08-30T00:05:40;17.70;;;13.87;;
6280;SDS011;3173;48.204;11.612;2023-08-30T00:08:07;20.27;;;12.80;;
6280;SDS011;3173;48.204;11.612;2023-08-30T00:10:33;18.17;;;14.53;;
6280;SDS011;3173;48.204;11.612;2023-08-30T00:12:59;17.90;;;13.37;;
6280;SDS011;3173;48.204;11.612;2023-08-30T00:15:25;20.40;;;13.87;;
6280;SDS011;3173;48.204;11.612;2023-08-30T00:17:51;16.70;;;12.83;;
6280;SDS011;3173;48.204;11.612;2023-08-30T00:20:18;16.50;;;13.03;;
6280;SDS011;3173;48.204;11.612;2023-08-30T00:22:44;16.13;;;12.73;;
6280;SDS011;3173;48.204;11.612;2023-08-30T00:25:10;17.10;;;13.70;;
6280;SDS011;3173;48.204;11.612;2023-08-30T00:27:36;17.47;;;13.53;;
6280;SDS011;3173;48.204;11.612;2023-08-30T00:30:03;18.07;;;14.80;;
6280;SDS011;3173;48.204;11.612;2023-08-30T00:32:29;16.73;;;13.53;;
6280;SDS011;3173;48.204;11.612;2023-08-30T00:34:56;18.40;;;14.53;;
6280;SDS011;3173;48.204;11.612;2023-08-30T00:37:23;17.97;;;14.67;;
6280;SDS011;3173;48.204;11.612;2023-08-30T00:39:49;16.90;;;13.23;;
6280;SDS011;3173;48.204;11.612;2023-08-30T00:42:15;16.77;;;13.43;;
6280;SDS011;3173;48.204;11.612;2023-08-30T00:44:41;15.40;;;13.20;;
6280;SDS011;3173;48.204;11.612;2023-08-30T00:47:07;19.87;;;13.80;;
6280;SDS011;3173;48.204;11.612;2023-08-30T00:49:34;17.97;;;13.60;;
6280;SDS011;3173;48.204;11.612;2023-08-30T00:52:01;19.50;;;14.00;;
6280;SDS011;3173;48.204;11.612;2023-08-30T00:54:28;17.73;;;13.50;;
6280;SDS011;3173;48.204;11.612;2023-08-30T00:56:54;18.67;;;14.17;;
6280;SDS011;3173;48.204;11.612;2023-08-30T00:59:21;17.90;;;13.70;;
6280;SDS011;3173;48.204;11.612;2023-08-30T01:01:48;18.07;;;13.83;;
6280;SDS011;3173;48.204;11.612;2023-08-30T01:04:14;20.17;;;14.10;;
6280;SDS011;3173;48.204;11.612;2023-08-30T01:06:41;16.33;;;13.80;;
6280;SDS011;3173;48.204;11.612;2023-08-30T01:09:07;17.63;;;13.53;;
6280;SDS011;3173;48.204;11.612;2023-08-30T01:14:20;17.90;;;13.10;;
6280;SDS011;3173;48.204;11.612;2023-08-30T01:16:47;19.80;;;14.57;;
6280;SDS011;3173;48.204;11.612;2023-08-30T01:19:20;17.93;;;13.10;;
6280;SDS011;3173;48.204;11.612;2023-08-30T01:22:14;18.30;;;13.43;;
6280;SDS011;3173;48.204;11.612;2023-08-30T01:24:40;17.67;;;13.50;;
6280;SDS011;3173;48.204;11.612;2023-08-30T01:27:08;17.13;;;13.67;;
6280;SDS011;3173;48.204;11.612;2023-08-30T01:29:34;17.97;;;12.40;;
6280;SDS011;3173;48.204;11.612;2023-08-30T01:32:03;16.20;;;13.10;;
6280;SDS011;3173;48.204;11.612;2023-08-30T01:34:29;15.57;;;12.47;;
6280;SDS011;3173;48.204;11.612;2023-08-30T01:36:56;20.13;;;13.23;;
6280;SDS011;3173;48.204;11.612;2023-08-30T01:39:23;17.37;;;13.17;;
6280;SDS011;3173;48.204;11.612;2023-08-30T01:41:50;16.37;;;12.27;;
6280;SDS011;3173;48.204;11.612;2023-08-30T01:44:17;16.93;;;13.47;;
6280;SDS011;3173;48.204;11.612;2023-08-30T01:46:45;18.30;;;14.00;;
6280;SDS011;3173;48.204;11.612;2023-08-30T01:49:11;18.43;;;12.37;;
6280;SDS011;3173;48.204;11.612;2023-08-30T01:51:38;16.20;;;12.93;;
6280;SDS011;3173;48.204;11.612;2023-08-30T01:54:05;16.73;;;12.53;;
6280;SDS011;3173;48.204;11.612;2023-08-30T01:56:32;16.80;;;12.70;;
6280;SDS011;3173;48.204;11.612;2023-08-30T01:58:58;15.00;;;11.43;;
6280;SDS011;3173;48.204;11.612;2023-08-30T02:01:24;14.57;;;12.10;;
6280;SDS011;3173;48.204;11.612;2023-08-30T02:03:50;14.83;;;12.17;;
6280;SDS011;3173;48.204;11.612;2023-08-30T02:06:26;18.80;;;13.63;;
6280;SDS011;3173;48.204;11.612;2023-08-30T02:08:59;17.10;;;11.03;;
6280;SDS011;3173;48.204;11.612;2023-08-30T02:11:28;15.07;;;11.23;;
6280;SDS011;3173;48.204;11.612;2023-08-30T02:13:57;15.93;;;11.63;;
6280;SDS011;3173;48.204;11.612;2023-08-30T02:16:23;17.60;;;11.57;;
6280;SDS011;3173;48.204;11.612;2023-08-30T02:18:51;15.37;;;11.10;;
6280;SDS011;3173;48.204;11.612;2023-08-30T02:21:18;14.53;;;11.30;;
6280;SDS011;3173;48.204;11.612;2023-08-30T02:23:48;14.93;;;11.10;;
6280;SDS011;3173;48.204;11.612;2023-08-30T02:26:15;14.17;;;10.30;;
6280;SDS011;3173;48.204;11.612;2023-08-30T02:28:41;13.37;;;11.10;;
6280;SDS011;3173;48.204;11.612;2023-08-30T02:31:07;14.57;;;10.40;;
6280;SDS011;3173;48.204;11.612;2023-08-30T02:33:33;15.60;;;11.30;;
6280;SDS011;3173;48.204;11.612;2023-08-30T02:35:59;14.40;;;10.83;;
6280;SDS011;3173;48.204;11.612;2023-08-30T02:38:25;14.23;;;10.60;;
6280;SDS011;3173;48.204;11.612;2023-08-30T02:40:51;13.90;;;11.07;;
6280;SDS011;3173;48.204;11.612;2023-08-30T02:43:18;15.30;;;11.17;;
6280;SDS011;3173;48.204;11.612;2023-08-30T02:45:44;12.80;;;10.20;;
6280;SDS011;3173;48.204;11.612;2023-08-30T02:48:10;12.00;;;9.83;;
6280;SDS011;3173;48.204;11.612;2023-08-30T02:50:36;17.10;;;11.73;;
6280;SDS011;3173;48.204;11.612;2023-08-30T02:53:02;14.00;;;11.33;;
6280;SDS011;3173;48.204;11.612;2023-08-30T02:55:30;12.20;;;9.60;;
6280;SDS011;3173;48.204;11.612;2023-08-30T02:57:56;11.80;;;9.63;;
6280;SDS011;3173;48.204;11.612;2023-08-30T03:00:22;14.97;;;9.90;;
6280;SDS011;3173;48.204;11.612;2023-08-30T03:02:48;13.60;;;9.87;;
6280;SDS011;3173;48.204;11.612;2023-08-30T03:05:14;13.57;;;10.70;;
6280;SDS011;3173;48.204;11.612;2023-08-30T03:07:41;11.67;;;9.53;;
6280;SDS011;3173;48.204;11.612;2023-08-30T03:10:07;12.03;;;9.97;;
6280;SDS011;3173;48.204;11.612;2023-08-30T03:12:33;12.10;;;9.57;;
6280;SDS011;3173;48.204;11.612;2023-08-30T03:14:59;12.60;;;9.47;;
6280;SDS011;3173;48.204;11.612;2023-08-30T03:17:25;13.27;;;10.67;;
6280;SDS011;3173;48.204;11.612;2023-08-30T03:19:52;13.30;;;9.77;;
6280;SDS011;3173;48.204;11.612;2023-08-30T03:22:18;11.50;;;9.33;;
6280;SDS011;3173;48.204;11.612;2023-08-30T03:24:44;11.40;;;9.73;;
6280;SDS011;3173;48.204;11.612;2023-08-30T03:27:10;13.03;;;9.70;;
6280;SDS011;3173;48.204;11.612;2023-08-30T03:29:36;12.90;;;10.27;;
6280;SDS011;3173;48.204;11.612;2023-08-30T03:32:03;12.40;;;9.20;;
6280;SDS011;3173;48.204;11.612;2023-08-30T03:34:29;13.57;;;9.60;;
6280;SDS011;3173;48.204;11.612;2023-08-30T03:36:55;13.23;;;10.63;;
6280;SDS011;3173;48.204;11.612;2023-08-30T03:39:22;20.43;;;10.07;;
6280;SDS011;3173;48.204;11.612;2023-08-30T03:41:49;15.10;;;10.87;;
6280;SDS011;3173;48.204;11.612;2023-08-30T03:44:16;14.43;;;10.73;;
6280;SDS011;3173;48.204;11.612;2023-08-30T03:46:42;11.77;;;9.20;;
6280;SDS011;3173;48.204;11.612;2023-08-30T03:49:08;11.90;;;9.60;;
6280;SDS011;3173;48.204;11.612;2023-08-30T03:51:34;11.67;;;9.43;;
6280;SDS011;3173;48.204;11.612;2023-08-30T03:54:00;12.73;;;10.10;;
6280;SDS011;3173;48.204;11.612;2023-08-30T03:56:26;13.90;;;10.13;;
6280;SDS011;3173;48.204;11.612;2023-08-30T03:58:52;13.17;;;10.30;;
6280;SDS011;3173;48.204;11.612;2023-08-30T04:01:18;16.23;;;10.23;;
6280;SDS011;3173;48.204;11.612;2023-08-30T04:03:44;15.17;;;10.47;;
6280;SDS011;3173;48.204;11.612;2023-08-30T04:06:10;13.63;;;9.13;;
6280;SDS011;3173;48.204;11.612;2023-08-30T04:08:36;12.47;;;10.30;;
6280;SDS011;3173;48.204;11.612;2023-08-30T04:11:02;12.60;;;9.97;;
6280;SDS011;3173;48.204;11.612;2023-08-30T04:13:29;13.70;;;8.87;;
6280;SDS011;3173;48.204;11.612;2023-08-30T04:15:55;12.30;;;9.20;;
6280;SDS011;3173;48.204;11.612;2023-08-30T04:18:23;12.33;;;9.27;;
6280;SDS011;3173;48.204;11.612;2023-08-30T04:20:49;15.70;;;10.53;;
6280;SDS011;3173;48.204;11.612;2023-08-30T04:23:16;11.17;;;9.10;;
6280;SDS011;3173;48.204;11.612;2023-08-30T04:25:43;15.63;;;9.97;;
6280;SDS011;3173;48.204;11.612;2023-08-30T04:28:09;12.30;;;9.53;;
6280;SDS011;3173;48.204;11.612;2023-08-30T04:30:36;10.90;;;8.97;;
6280;SDS011;3173;48.204;11.612;2023-08-30T04:33:03;12.33;;;9.70;;
6280;SDS011;3173;48.204;11.612;2023-08-30T04:35:30;12.60;;;9.73;;
6280;SDS011;3173;48.204;11.612;2023-08-30T04:37:57;13.70;;;9.80;;
6280;SDS011;3173;48.204;11.612;2023-08-30T04:40:24;13.70;;;10.77;;
6280;SDS011;3173;48.204;11.612;2023-08-30T04:42:50;13.13;;;9.87;;
6280;SDS011;3173;48.204;11.612;2023-08-30T04:45:16;11.83;;;9.40;;
6280;SDS011;3173;48.204;11.612;2023-08-30T04:47:42;11.13;;;8.97;;
6280;SDS011;3173;48.204;11.612;2023-08-30T04:50:10;14.77;;;10.20;;
6280;SDS011;3173;48.204;11.612;2023-08-30T04:52:36;13.37;;;9.13;;
6280;SDS011;3173;48.204;11.612;2023-08-30T04:55:02;11.90;;;9.90;;
6280;SDS011;3173;48.204;11.612;2023-08-30T04:57:29;11.50;;;9.47;;
6280;SDS011;3173;48.204;11.612;2023-08-30T04:59:55;15.03;;;10.03;;
6280;SDS011;3173;48.204;11.612;2023-08-30T05:02:21;10.77;;;9.40;;
6280;SDS011;3173;48.204;11.612;2023-08-30T05:04:47;10.80;;;9.50;;
6280;SDS011;3173;48.204;11.612;2023-08-30T05:07:13;14.07;;;9.17;;
6280;SDS011;3173;48.204;11.612;2023-08-30T05:09:40;11.70;;;9.30;;
6280;SDS011;3173;48.204;11.612;2023-08-30T05:12:06;11.20;;;9.33;;
6280;SDS011;3173;48.204;11.612;2023-08-30T05:14:32;17.97;;;10.60;;
6280;SDS011;3173;48.204;11.612;2023-08-30T05:16:58;11.63;;;9.83;;
6280;SDS011;3173;48.204;11.612;2023-08-30T05:19:24;13.23;;;10.00;;
6280;SDS011;3173;48.204;11.612;2023-08-30T05:21:51;13.43;;;11.03;;
6280;SDS011;3173;48.204;11.612;2023-08-30T05:24:20;12.53;;;9.73;;
6280;SDS011;3173;48.204;11.612;2023-08-30T05:26:46;11.40;;;8.70;;
6280;SDS011;3173;48.204;11.612;2023-08-30T05:29:14;12.80;;;9.43;;
6280;SDS011;3173;48.204;11.612;2023-08-30T05:31:40;12.77;;;9.50;;
6280;SDS011;3173;48.204;11.612;2023-08-30T05:34:06;11.90;;;9.57;;
6280;SDS011;3173;48.204;11.612;2023-08-30T05:36:33;12.80;;;9.00;;
6280;SDS011;3173;48.204;11.612;2023-08-30T05:38:59;12.53;;;9.40;;
6280;SDS011;3173;48.204;11.612;2023-08-30T05:41:25;15.70;;;9.97;;
6280;SDS011;3173;48.204;11.612;2023-08-30T05:43:51;16.10;;;9.83;;
6280;SDS011;3173;48.204;11.612;2023-08-30T05:46:17;14.00;;;9.77;;
6280;SDS011;3173;48.204;11.612;2023-08-30T05:48:44;14.20;;;10.07;;
6280;SDS011;3173;48.204;11.612;2023-08-30T05:51:10;13.73;;;10.17;;
6280;SDS011;3173;48.204;11.612;2023-08-30T05:53:36;11.80;;;8.97;;
6280;SDS011;3173;48.204;11.612;2023-08-30T05:56:03;10.53;;;8.80;;
6280;SDS011;3173;48.204;11.612;2023-08-30T05:58:29;11.67;;;9.13;;
6280;SDS011;3173;48.204;11.612;2023-08-30T06:00:56;16.37;;;9.57;;
6280;SDS011;3173;48.204;11.612;2023-08-30T06:03:22;13.17;;;9.00;;
6280;SDS011;3173;48.204;11.612;2023-08-30T06:05:48;13.27;;;10.47;;
6280;SDS011;3173;48.204;11.612;2023-08-30T06:08:14;11.27;;;9.60;;
6280;SDS011;3173;48.204;11.612;2023-08-30T06:10:42;11.67;;;8.80;;
6280;SDS011;3173;48.204;11.612;2023-08-30T06:13:08;12.83;;;9.30;;
6280;SDS011;3173;48.204;11.612;2023-08-30T06:15:35;12.57;;;9.70;;
6280;SDS011;3173;48.204;11.612;2023-08-30T06:18:03;14.20;;;8.73;;
6280;SDS011;3173;48.204;11.612;2023-08-30T06:20:29;12.40;;;9.63;;
6280;SDS011;3173;48.204;11.612;2023-08-30T06:22:57;12.37;;;8.00;;
6280;SDS011;3173;48.204;11.612;2023-08-30T06:25:23;10.50;;;8.17;;
6280;SDS011;3173;48.204;11.612;2023-08-30T06:27:57;12.00;;;9.10;;
6280;SDS011;3173;48.204;11.612;2023-08-30T06:30:27;12.03;;;9.10;;
6280;SDS011;3173;48.204;11.612;2023-08-30T06:32:54;11.90;;;9.57;;
6280;SDS011;3173;48.204;11.612;2023-08-30T06:35:21;13.07;;;9.20;;
6280;SDS011;3173;48.204;11.612;2023-08-30T06:37:47;10.40;;;9.13;;
6280;SDS011;3173;48.204;11.612;2023-08-30T06:40:13;11.83;;;8.40;;
6280;SDS011;3173;48.204;11.612;2023-08-30T06:42:39;11.67;;;9.93;;
6280;SDS011;3173;48.204;11.612;2023-08-30T06:45:06;11.83;;;8.50;;
6280;SDS011;3173;48.204;11.612;2023-08-30T06:47:32;12.87;;;9.30;;
6280;SDS011;3173;48.204;11.612;2023-08-30T06:49:59;13.57;;;9.03;;
6280;SDS011;3173;48.204;11.612;2023-08-30T06:52:25;11.50;;;9.17;;
6280;SDS011;3173;48.204;11.612;2023-08-30T06:54:51;14.03;;;9.40;;
6280;SDS011;3173;48.204;11.612;2023-08-30T06:57:17;12.60;;;9.00;;
6280;SDS011;3173;48.204;11.612;2023-08-30T06:59:43;10.40;;;8.93;;
6280;SDS011;3173;48.204;11.612;2023-08-30T07:02:09;13.13;;;9.10;;
6280;SDS011;3173;48.204;11.612;2023-08-30T07:04:35;11.90;;;9.03;;
6280;SDS011;3173;48.204;11.612;2023-08-30T07:07:01;10.87;;;9.47;;
6280;SDS011;3173;48.204;11.612;2023-08-30T07:09:28;11.33;;;9.70;;
6280;SDS011;3173;48.204;11.612;2023-08-30T07:11:55;9.73;;;8.23;;
6280;SDS011;3173;48.204;11.612;2023-08-30T07:14:21;9.73;;;8.40;;
6280;SDS011;3173;48.204;11.612;2023-08-30T07:16:47;17.47;;;9.90;;
6280;SDS011;3173;48.204;11.612;2023-08-30T07:19:14;15.47;;;9.97;;
6280;SDS011;3173;48.204;11.612;2023-08-30T07:21:41;10.30;;;8.60;;
6280;SDS011;3173;48.204;11.612;2023-08-30T07:24:08;11.20;;;9.20;;
6280;SDS011;3173;48.204;11.612;2023-08-30T07:26:34;11.33;;;9.20;;
6280;SDS011;3173;48.204;11.612;2023-08-30T07:29:01;10.37;;;8.63;;
6280;SDS011;3173;48.204;11.612;2023-08-30T07:31:27;11.50;;;9.40;;
6280;SDS011;3173;48.204;11.612;2023-08-30T07:33:53;14.87;;;10.20;;
6280;SDS011;3173;48.204;11.612;2023-08-30T07:36:21;16.70;;;11.10;;
6280;SDS011;3173;48.204;11.612;2023-08-30T07:38:47;11.40;;;10.10;;
6280;SDS011;3173;48.204;11.612;2023-08-30T07:41:13;12.50;;;9.17;;
6280;SDS011;3173;48.204;11.612;2023-08-30T07:43:39;10.57;;;9.47;;
6280;SDS011;3173;48.204;11.612;2023-08-30T07:46:05;11.30;;;8.80;;
6280;SDS011;3173;48.204;11.612;2023-08-30T07:48:31;11.07;;;9.47;;
6280;SDS011;3173;48.204;11.612;2023-08-30T07:50:57;12.63;;;10.30;;
6280;SDS011;3173;48.204;11.612;2023-08-30T07:53:23;12.10;;;10.50;;
6280;SDS011;3173;48.204;11.612;2023-08-30T07:55:49;14.53;;;10.30;;
6280;SDS011;3173;48.204;11.612;2023-08-30T07:58:18;12.20;;;9.30;;
6280;SDS011;3173;48.204;11.612;2023-08-30T08:00:44;11.77;;;9.63;;
6280;SDS011;3173;48.204;11.612;2023-08-30T08:03:11;12.23;;;9.60;;
6280;SDS011;3173;48.204;11.612;2023-08-30T08:05:37;12.23;;;9.53;;
6280;SDS011;3173;48.204;11.612;2023-08-30T08:08:03;10.73;;;9.63;;
6280;SDS011;3173;48.204;11.612;2023-08-30T08:10:32;10.70;;;9.00;;
6280;SDS011;3173;48.204;11.612;2023-08-30T08:12:59;11.20;;;9.77;;
6280;SDS011;3173;48.204;11.612;2023-08-30T08:15:25;11.80;;;8.77;;
6280;SDS011;3173;48.204;11.612;2023-08-30T08:17:51;11.80;;;9.47;;
6280;SDS011;3173;48.204;11.612;2023-08-30T08:20:17;9.73;;;8.70;;
6280;SDS011;3173;48.204;11.612;2023-08-30T08:22:43;10.43;;;8.83;;
6280;SDS011;3173;48.204;11.612;2023-08-30T08:25:10;10.57;;;9.07;;
6280;SDS011;3173;48.204;11.612;2023-08-30T08:27:36;10.77;;;9.23;;
6280;SDS011;3173;48.204;11.612;2023-08-30T08:30:03;9.67;;;8.67;;
6280;SDS011;3173;48.204;11.612;2023-08-30T08:32:30;11.67;;;9.33;;
6280;SDS011;3173;48.204;11.612;2023-08-30T08:34:57;12.33;;;9.93;;
6280;SDS011;3173;48.204;11.612;2023-08-30T08:37:23;13.40;;;8.90;;
6280;SDS011;3173;48.204;11.612;2023-08-30T08:39:49;9.83;;;8.23;;
6280;SDS011;3173;48.204;11.612;2023-08-30T08:42:19;12.17;;;9.30;;
6280;SDS011;3173;48.204;11.612;2023-08-30T08:44:50;11.00;;;9.00;;
6280;SDS011;3173;48.204;11.612;2023-08-30T08:47:19;11.07;;;8.63;;
6280;SDS011;3173;48.204;11.612;2023-08-30T08:49:45;9.40;;;8.10;;
6280;SDS011;3173;48.204;11.612;2023-08-30T08:52:13;9.60;;;8.30;;
6280;SDS011;3173;48.204;11.612;2023-08-30T08:54:40;11.10;;;8.50;;
6280;SDS011;3173;48.204;11.612;2023-08-30T08:57:06;9.63;;;7.53;;
6280;SDS011;3173;48.204;11.612;2023-08-30T08:59:33;12.40;;;8.30;;
6280;SDS011;3173;48.204;11.612;2023-08-30T09:02:02;8.43;;;7.53;;
6280;SDS011;3173;48.204;11.612;2023-08-30T09:04:32;9.93;;;8.30;;
6280;SDS011;3173;48.204;11.612;2023-08-30T09:06:58;8.33;;;7.03;;
6280;SDS011;3173;48.204;11.612;2023-08-30T09:09:25;9.37;;;8.13;;
6280;SDS011;3173;48.204;11.612;2023-08-30T09:11:51;9.00;;;7.10;;
6280;SDS011;3173;48.204;11.612;2023-08-30T09:14:18;8.90;;;6.80;;
6280;SDS011;3173;48.204;11.612;2023-08-30T09:17:05;8.07;;;5.40;;
6280;SDS011;3173;48.204;11.612;2023-08-30T09:19:30;8.30;;;6.03;;
6280;SDS011;3173;48.204;11.612;2023-08-30T09:21:57;7.80;;;6.40;;
6280;SDS011;3173;48.204;11.612;2023-08-30T09:24:24;7.90;;;5.50;;
6280;SDS011;3173;48.204;11.612;2023-08-30T09:26:52;6.63;;;4.57;;
6280;SDS011;3173;48.204;11.612;2023-08-30T09:29:18;8.10;;;4.80;;
6280;SDS011;3173;48.204;11.612;2023-08-30T09:31:45;7.93;;;6.03;;
6280;SDS011;3173;48.204;11.612;2023-08-30T09:34:11;6.80;;;5.63;;
6280;SDS011;3173;48.204;11.612;2023-08-30T09:36:38;5.47;;;3.97;;
6280;SDS011;3173;48.204;11.612;2023-08-30T09:39:08;6.60;;;4.60;;
6280;SDS011;3173;48.204;11.612;2023-08-30T09:41:35;6.57;;;4.97;;
6280;SDS011;3173;48.204;11.612;2023-08-30T09:44:14;5.60;;;4.57;;
6280;SDS011;3173;48.204;11.612;2023-08-30T09:46:43;6.73;;;4.43;;
6280;SDS011;3173;48.204;11.612;2023-08-30T09:49:10;9.50;;;4.00;;
6280;SDS011;3173;48.204;11.612;2023-08-30T09:51:40;5.77;;;3.80;;
6280;SDS011;3173;48.204;11.612;2023-08-30T09:54:09;7.70;;;3.73;;
6280;SDS011;3173;48.204;11.612;2023-08-30T09:56:36;9.00;;;4.20;;
6280;SDS011;3173;48.204;11.612;2023-08-30T09:59:03;6.40;;;3.73;;
6280;SDS011;3173;48.204;11.612;2023-08-30T10:01:29;6.43;;;3.63;;
6280;SDS011;3173;48.204;11.612;2023-08-30T10:03:55;4.73;;;3.40;;
6280;SDS011;3173;48.204;11.612;2023-08-30T10:06:23;4.83;;;3.23;;
6280;SDS011;3173;48.204;11.612;2023-08-30T10:08:49;3.80;;;2.90;;
6280;SDS011;3173;48.204;11.612;2023-08-30T10:11:18;4.07;;;3.10;;
6280;SDS011;3173;48.204;11.612;2023-08-30T10:13:44;4.43;;;2.93;;
6280;SDS011;3173;48.204;11.612;2023-08-30T10:16:12;6.87;;;2.33;;
6280;SDS011;3173;48.204;11.612;2023-08-30T10:18:40;3.50;;;1.60;;
6280;SDS011;3173;48.204;11.612;2023-08-30T10:21:08;4.90;;;2.03;;
6280;SDS011;3173;48.204;11.612;2023-08-30T10:23:35;4.17;;;2.50;;
6280;SDS011;3173;48.204;11.612;2023-08-30T10:26:02;4.60;;;2.30;;
6280;SDS011;3173;48.204;11.612;2023-08-30T10:28:29;5.43;;;2.77;;
6280;SDS011;3173;48.204;11.612;2023-08-30T10:30:56;3.10;;;2.40;;
6280;SDS011;3173;48.204;11.612;2023-08-30T10:33:22;6.90;;;2.20;;
6280;SDS011;3173;48.204;11.612;2023-08-30T10:35:51;2.63;;;2.30;;
6280;SDS011;3173;48.204;11.612;2023-08-30T10:38:27;4.03;;;2.53;;
6280;SDS011;3173;48.204;11.612;2023-08-30T10:40:54;2.80;;;2.20;;
6280;SDS011;3173;48.204;11.612;2023-08-30T10:43:30;3.70;;;1.80;;
6280;SDS011;3173;48.204;11.612;2023-08-30T10:46:03;5.63;;;2.30;;
6280;SDS011;3173;48.204;11.612;2023-08-30T10:48:35;5.60;;;2.10;;
6280;SDS011;3173;48.204;11.612;2023-08-30T10:51:01;4.60;;;1.87;;
6280;SDS011;3173;48.204;11.612;2023-08-30T10:53:30;3.30;;;1.90;;
6280;SDS011;3173;48.204;11.612;2023-08-30T10:56:17;6.33;;;2.10;;
6280;SDS011;3173;48.204;11.612;2023-08-30T10:58:43;5.23;;;2.07;;
6280;SDS011;3173;48.204;11.612;2023-08-30T11:01:09;2.30;;;1.60;;
6280;SDS011;3173;48.204;11.612;2023-08-30T11:03:38;2.43;;;1.90;;
6280;SDS011;3173;48.204;11.612;2023-08-30T11:06:04;4.57;;;2.03;;
6280;SDS011;3173;48.204;11.612;2023-08-30T11:08:30;2.90;;;1.60;;
6280;SDS011;3173;48.204;11.612;2023-08-30T11:11:01;2.50;;;1.50;;
6280;SDS011;3173;48.204;11.612;2023-08-30T11:13:29;4.93;;;1.80;;
6280;SDS011;3173;48.204;11.612;2023-08-30T11:15:59;3.30;;;1.67;;
6280;SDS011;3173;48.204;11.612;2023-08-30T11:18:25;2.67;;;1.70;;
6280;SDS011;3173;48.204;11.612;2023-08-30T11:21:00;3.03;;;1.40;;
6280;SDS011;3173;48.204;11.612;2023-08-30T11:23:27;3.03;;;1.00;;
6280;SDS011;3173;48.204;11.612;2023-08-30T11:25:53;2.27;;;1.20;;
6280;SDS011;3173;48.204;11.612;2023-08-30T11:28:23;4.20;;;1.10;;
6280;SDS011;3173;48.204;11.612;2023-08-30T11:30:50;3.60;;;1.27;;
6280;SDS011;3173;48.204;11.612;2023-08-30T11:33:17;5.53;;;1.30;;
6280;SDS011;3173;48.204;11.612;2023-08-30T11:35:49;3.10;;;1.73;;
6280;SDS011;3173;48.204;11.612;2023-08-30T11:38:15;9.10;;;1.90;;
6280;SDS011;3173;48.204;11.612;2023-08-30T11:40:43;2.83;;;1.50;;
6280;SDS011;3173;48.204;11.612;2023-08-30T11:43:09;2.90;;;1.20;;
6280;SDS011;3173;48.204;11.612;2023-08-30T11:45:36;3.60;;;1.30;;
6280;SDS011;3173;48.204;11.612;2023-08-30T11:48:02;3.17;;;1.17;;
6280;SDS011;3173;48.204;11.612;2023-08-30T11:50:28;4.97;;;1.63;;
6280;SDS011;3173;48.204;11.612;2023-08-30T11:52:55;2.73;;;1.40;;
6280;SDS011;3173;48.204;11.612;2023-08-30T11:55:21;1.93;;;1.03;;
6280;SDS011;3173;48.204;11.612;2023-08-30T11:57:50;4.77;;;1.30;;
6280;SDS011;3173;48.204;11.612;2023-08-30T12:00:18;2.83;;;1.40;;
6280;SDS011;3173;48.204;11.612;2023-08-30T12:02:47;3.40;;;1.43;;
6280;SDS011;3173;48.204;11.612;2023-08-30T12:05:14;2.53;;;1.33;;
6280;SDS011;3173;48.204;11.612;2023-08-30T12:07:41;3.70;;;1.80;;
6280;SDS011;3173;48.204;11.612;2023-08-30T12:10:08;2.20;;;1.30;;
6280;SDS011;3173;48.204;11.612;2023-08-30T12:12:34;2.53;;;1.17;;
6280;SDS011;3173;48.204;11.612;2023-08-30T12:15:09;2.60;;;1.20;;
6280;SDS011;3173;48.204;11.612;2023-08-30T12:17:36;2.50;;;1.03;;
6280;SDS011;3173;48.204;11.612;2023-08-30T12:20:02;1.90;;;1.13;;
6280;SDS011;3173;48.204;11.612;2023-08-30T12:22:38;3.00;;;1.40;;
6280;SDS011;3173;48.204;11.612;2023-08-30T12:25:26;2.80;;;1.00;;
6280;SDS011;3173;48.204;11.612;2023-08-30T12:27:52;3.07;;;1.33;;
6280;SDS011;3173;48.204;11.612;2023-08-30T12:30:18;2.50;;;1.30;;
6280;SDS011;3173;48.204;11.612;2023-08-30T12:32:45;3.37;;;1.20;;
6280;SDS011;3173;48.204;11.612;2023-08-30T12:35:11;2.80;;;1.23;;
6280;SDS011;3173;48.204;11.612;2023-08-30T12:37:37;2.40;;;1.00;;
6280;SDS011;3173;48.204;11.612;2023-08-30T12:40:04;2.37;;;1.37;;
6280;SDS011;3173;48.204;11.612;2023-08-30T12:42:31;1.93;;;1.00;;
6280;SDS011;3173;48.204;11.612;2023-08-30T12:44:57;3.47;;;1.87;;
6280;SDS011;3173;48.204;11.612;2023-08-30T12:47:23;2.20;;;1.20;;
6280;SDS011;3173;48.204;11.612;2023-08-30T12:49:49;2.23;;;1.73;;
6280;SDS011;3173;48.204;11.612;2023-08-30T12:52:15;4.00;;;2.10;;
6280;SDS011;3173;48.204;11.612;2023-08-30T12:54:42;1.97;;;1.37;;
6280;SDS011;3173;48.204;11.612;2023-08-30T12:57:08;2.03;;;1.20;;
6280;SDS011;3173;48.204;11.612;2023-08-30T12:59:34;3.67;;;1.23;;
6280;SDS011;3173;48.204;11.612;2023-08-30T13:02:01;2.23;;;1.10;;
6280;SDS011;3173;48.204;11.612;2023-08-30T13:04:27;3.47;;;1.43;;
6280;SDS011;3173;48.204;11.612;2023-08-30T13:06:53;12.70;;;1.83;;
6280;SDS011;3173;48.204;11.612;2023-08-30T13:09:20;3.53;;;2.13;;
6280;SDS011;3173;48.204;11.612;2023-08-30T13:11:46;4.70;;;1.60;;
6280;SDS011;3173;48.204;11.612;2023-08-30T13:14:12;2.40;;;1.53;;
6280;SDS011;3173;48.204;11.612;2023-08-30T13:16:38;3.83;;;1.93;;
6280;SDS011;3173;48.204;11.612;2023-08-30T13:19:04;2.70;;;2.00;;
6280;SDS011;3173;48.204;11.612;2023-08-30T13:21:31;7.50;;;2.63;;
6280;SDS011;3173;48.204;11.612;2023-08-30T13:23:57;2.80;;;1.93;;
6280;SDS011;3173;48.204;11.612;2023-08-30T13:26:23;2.70;;;2.20;;
6280;SDS011;3173;48.204;11.612;2023-08-30T13:28:49;3.50;;;2.37;;
6280;SDS011;3173;48.204;11.612;2023-08-30T13:31:15;5.20;;;2.70;;
6280;SDS011;3173;48.204;11.612;2023-08-30T13:33:42;3.03;;;2.50;;
6280;SDS011;3173;48.204;11.612;2023-08-30T13:36:08;3.33;;;2.37;;
6280;SDS011;3173;48.204;11.612;2023-08-30T13:38:34;3.77;;;2.60;;
6280;SDS011;3173;48.204;11.612;2023-08-30T13:41:00;4.10;;;2.57;;
6280;SDS011;3173;48.204;11.612;2023-08-30T13:43:28;3.53;;;2.87;;
6280;SDS011;3173;48.204;11.612;2023-08-30T13:45:58;3.23;;;2.43;;
6280;SDS011;3173;48.204;11.612;2023-08-30T13:48:25;4.47;;;2.57;;
6280;SDS011;3173;48.204;11.612;2023-08-30T13:50:51;2.60;;;2.33;;
6280;SDS011;3173;48.204;11.612;2023-08-30T13:53:17;2.90;;;2.37;;
6280;SDS011;3173;48.204;11.612;2023-08-30T13:55:46;4.17;;;2.43;;
6280;SDS011;3173;48.204;11.612;2023-08-30T13:58:14;2.93;;;2.13;;
6280;SDS011;3173;48.204;11.612;2023-08-30T14:00:40;4.63;;;2.40;;
6280;SDS011;3173;48.204;11.612;2023-08-30T14:03:06;4.37;;;2.40;;
6280;SDS011;3173;48.204;11.612;2023-08-30T14:05:35;3.40;;;1.90;;
6280;SDS011;3173;48.204;11.612;2023-08-30T14:08:01;3.70;;;2.03;;
6280;SDS011;3173;48.204;11.612;2023-08-30T14:10:27;3.93;;;2.70;;
6280;SDS011;3173;48.204;11.612;2023-08-30T14:12:53;5.80;;;3.00;;
6280;SDS011;3173;48.204;11.612;2023-08-30T14:15:19;4.33;;;2.57;;
6280;SDS011;3173;48.204;11.612;2023-08-30T14:17:46;3.30;;;2.17;;
6280;SDS011;3173;48.204;11.612;2023-08-30T14:20:12;3.03;;;2.20;;
6280;SDS011;3173;48.204;11.612;2023-08-30T14:22:38;7.30;;;2.27;;
6280;SDS011;3173;48.204;11.612;2023-08-30T14:25:04;2.63;;;1.90;;
6280;SDS011;3173;48.204;11.612;2023-08-30T14:27:30;3.43;;;2.07;;
6280;SDS011;3173;48.204;11.612;2023-08-30T14:29:57;4.03;;;2.80;;
6280;SDS011;3173;48.204;11.612;2023-08-30T14:32:25;3.40;;;2.70;;
6280;SDS011;3173;48.204;11.612;2023-08-30T14:34:52;2.77;;;2.17;;
6280;SDS011;3173;48.204;11.612;2023-08-30T14:37:18;4.37;;;2.67;;
6280;SDS011;3173;48.204;11.612;2023-08-30T14:39:44;3.70;;;2.93;;
6280;SDS011;3173;48.204;11.612;2023-08-30T14:42:10;2.70;;;1.83;;
6280;SDS011;3173;48.204;11.612;2023-08-30T14:44:36;2.30;;;1.77;;
6280;SDS011;3173;48.204;11.612;2023-08-30T14:47:02;5.93;;;2.27;;
6280;SDS011;3173;48.204;11.612;2023-08-30T14:49:30;2.73;;;2.13;;
6280;SDS011;3173;48.204;11.612;2023-08-30T14:51:57;4.70;;;2.67;;